Terminal Aerodrome Forecast
Issued by NWS Wakefield, VA

Home | Current Version | Previous Version | Text Only | Print | Product List | Glossary On
Versions: 1 2 3 4 5 6 7 8 9 10 11 12 13 14 15 16 17 18 19 20 21 22 23 24 25 26 27 28 29 30 31 32 33 34
187
FTUS41 KAKQ 221406 AAB
TAFORF
TAF AMD
KORF 221406Z 2214/2312 23012KT P6SM OVC007
      TEMPO 2215/2217 SCT007 BKN025
     FM221700 18007KT P6SM BKN060
     FM222300 05005KT P6SM BKN060
     FM230600 01007KT 4SM -DZ BR BKN005=

USA.gov is the U.S. government's official web portal to all federal, state and local government web resources and services.